createdAt,value
2018-12-17T00:00:25.685Z,32.63
2018-12-17T00:02:55.280Z,41.30
2018-12-17T00:05:24.937Z,40.70
2018-12-17T00:07:54.684Z,49.10
2018-12-17T00:10:24.329Z,39.80
2018-12-17T00:12:54.545Z,46.48
2018-12-17T00:15:24.339Z,38.28
2018-12-17T00:17:53.850Z,36.03
2018-12-17T00:20:23.305Z,44.70
2018-12-17T00:22:52.922Z,43.80
2018-12-17T00:25:22.470Z,51.35
2018-12-17T00:30:48.612Z,41.30
2018-12-17T00:33:18.122Z,42.38
2018-12-17T00:35:47.582Z,37.13
2018-12-17T00:38:17.027Z,45.90
2018-12-17T00:40:46.400Z,35.08
2018-12-17T00:43:15.781Z,40.67
2018-12-17T00:45:45.323Z,39.90
2018-12-17T00:48:14.732Z,37.03
2018-12-17T00:50:44.152Z,35.17
2018-12-17T00:53:13.624Z,40.65
2018-12-17T00:55:43.135Z,35.20
2018-12-17T00:58:15.337Z,34.33
2018-12-17T01:00:44.140Z,35.78
2018-12-17T01:03:13.614Z,37.83
2018-12-17T01:05:43.261Z,38.40
2018-12-17T01:08:11.721Z,37.58
2018-12-17T01:10:41.164Z,39.30
2018-12-17T01:13:10.631Z,32.60
2018-12-17T01:15:40.021Z,34.27
2018-12-17T01:18:09.564Z,43.05
2018-12-17T01:20:39.009Z,43.20
2018-12-17T01:23:08.469Z,41.98
2018-12-17T01:25:38.045Z,41.20
2018-12-17T01:28:07.534Z,46.40
2018-12-17T01:30:37.189Z,45.05
2018-12-17T01:33:06.624Z,53.48
2018-12-17T01:35:36.073Z,37.88
2018-12-17T01:38:05.939Z,33.75
2018-12-17T01:40:35.810Z,46.63
2018-12-17T01:43:05.358Z,48.35
2018-12-17T01:45:34.754Z,42.95
2018-12-17T01:48:04.290Z,40.25
2018-12-17T01:50:33.742Z,41.63
2018-12-17T01:53:03.154Z,40.85
2018-12-17T01:55:32.542Z,46.63
2018-12-17T01:58:02.022Z,47.23
2018-12-17T02:00:31.451Z,52.77
2018-12-17T02:03:00.888Z,43.05
2018-12-17T02:05:30.313Z,41.45
2018-12-17T02:07:59.814Z,48.28
2018-12-17T02:10:29.248Z,39.42
2018-12-17T02:12:58.667Z,44.30
2018-12-17T02:15:28.108Z,45.00
2018-12-17T02:17:57.614Z,53.63
2018-12-17T02:23:23.771Z,46.50
2018-12-17T02:25:53.247Z,37.25
2018-12-17T02:28:22.995Z,40.63
2018-12-17T02:30:52.579Z,51.02
2018-12-17T02:33:22.640Z,44.90
2018-12-17T02:35:52.182Z,53.48
2018-12-17T02:41:18.388Z,38.40
2018-12-17T02:43:48.412Z,53.57
2018-12-17T02:46:17.836Z,60.90
2018-12-17T02:48:57.449Z,49.58
2018-12-17T02:51:30.172Z,56.10
2018-12-17T02:54:05.594Z,43.95
2018-12-17T02:56:51.232Z,47.07
2018-12-17T03:00:01.006Z,60.73
2018-12-17T03:02:39.007Z,44.95
2018-12-17T03:05:12.216Z,47.30
2018-12-17T03:07:43.198Z,53.10
2018-12-17T03:10:40.938Z,46.50
2018-12-17T03:13:22.854Z,45.20
2018-12-17T03:15:54.431Z,45.83
2018-12-17T03:18:39.054Z,49.95
2018-12-17T03:21:11.808Z,49.38
2018-12-17T03:23:42.950Z,57.25
2018-12-17T03:29:19.497Z,43.33
2018-12-17T03:31:58.743Z,49.25
2018-12-17T03:34:45.723Z,41.50
2018-12-17T03:37:21.203Z,40.55
2018-12-17T03:40:03.564Z,44.53
2018-12-17T03:43:06.133Z,49.23
2018-12-17T03:45:43.484Z,48.17
2018-12-17T03:48:20.258Z,55.10
2018-12-17T03:50:53.424Z,45.20
2018-12-17T03:53:26.670Z,42.15
2018-12-17T03:56:10.382Z,45.57
2018-12-17T03:58:46.055Z,47.55
2018-12-17T04:01:29.919Z,46.50
2018-12-17T04:04:02.682Z,47.30
2018-12-17T04:06:33.779Z,49.83
2018-12-17T04:12:07.513Z,40.63
2018-12-17T04:14:54.158Z,52.05
2018-12-17T04:17:29.653Z,51.77
2018-12-17T04:20:22.596Z,48.83
2018-12-17T04:22:58.261Z,45.35
2018-12-17T04:25:29.307Z,46.65
2018-12-17T04:28:05.117Z,43.00
2018-12-17T04:30:40.965Z,50.67
2018-12-17T04:33:13.781Z,44.20
2018-12-17T04:36:02.376Z,49.77
2018-12-17T04:38:43.219Z,46.20
2018-12-17T04:44:28.796Z,41.10
2018-12-17T04:46:58.173Z,47.03
2018-12-17T04:49:42.393Z,46.15
2018-12-17T04:54:54.767Z,52.70
2018-12-17T04:57:24.301Z,39.30
2018-12-17T04:59:59.574Z,52.20
2018-12-17T05:02:57.135Z,54.55
2018-12-17T05:05:26.590Z,47.45
2018-12-17T05:07:56.100Z,48.48
2018-12-17T05:10:27.018Z,44.80
2018-12-17T05:12:56.564Z,52.03
2018-12-17T05:15:25.970Z,51.95
2018-12-17T05:17:55.470Z,45.08
2018-12-17T05:20:25.087Z,51.50
2018-12-17T05:22:54.611Z,69.07
2018-12-17T05:25:24.270Z,60.60
2018-12-17T05:27:53.660Z,80.35
2018-12-17T05:30:23.127Z,59.50
2018-12-17T05:32:52.676Z,60.17
2018-12-17T05:35:23.062Z,55.17
2018-12-17T05:37:52.557Z,64.35
2018-12-17T05:40:22.075Z,57.62
2018-12-17T05:42:51.651Z,67.15
2018-12-17T05:45:21.062Z,62.30
2018-12-17T05:47:50.512Z,71.30
2018-12-17T05:50:19.890Z,60.20
2018-12-17T05:52:49.301Z,52.43
2018-12-17T05:55:18.823Z,57.00
2018-12-17T05:57:48.289Z,53.92
2018-12-17T06:00:17.769Z,63.73
2018-12-17T06:02:47.249Z,69.87
2018-12-17T06:05:16.857Z,63.35
2018-12-17T06:07:46.278Z,69.25
2018-12-17T06:10:15.761Z,62.08
2018-12-17T06:12:45.158Z,68.53
2018-12-17T06:15:14.640Z,58.60
2018-12-17T06:17:44.065Z,71.02
2018-12-17T06:20:13.506Z,76.62
2018-12-17T06:22:42.969Z,65.50
2018-12-17T06:25:12.498Z,67.03
2018-12-17T06:27:41.980Z,66.22
2018-12-17T06:30:11.622Z,65.03
2018-12-17T06:32:41.078Z,80.32
2018-12-17T06:35:10.682Z,68.35
2018-12-17T06:37:40.125Z,59.90
2018-12-17T06:40:10.377Z,61.37
2018-12-17T06:42:40.270Z,68.97
2018-12-17T06:45:09.987Z,67.37
2018-12-17T06:47:39.508Z,65.70
2018-12-17T06:50:09.060Z,75.87
2018-12-17T06:52:38.534Z,68.15
2018-12-17T06:55:08.155Z,79.45
2018-12-17T06:57:38.731Z,66.87
2018-12-17T07:00:08.984Z,69.12
2018-12-17T07:02:38.420Z,67.63
2018-12-17T07:05:08.177Z,65.45
2018-12-17T07:07:37.671Z,87.02
2018-12-17T07:10:07.501Z,65.57
2018-12-17T07:12:37.172Z,87.80
2018-12-17T07:15:07.724Z,77.03
2018-12-17T07:17:37.203Z,62.23
2018-12-17T07:20:07.234Z,76.60
2018-12-17T07:22:36.657Z,70.37
2018-12-17T07:25:06.560Z,66.02
2018-12-17T07:27:36.119Z,64.60
2018-12-17T07:30:06.674Z,57.88
2018-12-17T07:32:36.888Z,59.55
2018-12-17T07:35:08.649Z,67.30
2018-12-17T07:37:39.117Z,81.45
2018-12-17T07:40:09.267Z,75.35
2018-12-17T07:42:38.884Z,90.53
2018-12-17T07:45:08.643Z,85.32
2018-12-17T07:47:38.196Z,69.97
2018-12-17T07:50:08.418Z,63.60
2018-12-17T07:52:44.212Z,65.25
2018-12-17T07:55:13.852Z,62.00
2018-12-17T07:57:43.251Z,78.45
2018-12-17T08:00:13.217Z,76.85
2018-12-17T08:02:42.703Z,67.10
2018-12-17T08:05:12.118Z,68.43
2018-12-17T08:07:41.538Z,76.45
2018-12-17T08:10:11.134Z,85.40
2018-12-17T08:12:40.630Z,69.40
2018-12-17T08:15:10.321Z,73.87
2018-12-17T08:17:58.510Z,74.35
2018-12-17T08:20:45.329Z,62.15
2018-12-17T08:23:21.072Z,86.20
2018-12-17T08:25:50.815Z,75.72
2018-12-17T08:28:37.392Z,78.22
2018-12-17T08:31:19.654Z,75.08
2018-12-17T08:33:49.158Z,83.33
2018-12-17T08:36:18.709Z,73.80
2018-12-17T08:38:48.193Z,81.37
2018-12-17T08:41:17.669Z,59.58
2018-12-17T08:43:47.193Z,55.28
2018-12-17T08:46:16.704Z,57.30
2018-12-17T08:48:46.142Z,67.40
2018-12-17T08:51:15.604Z,63.60
2018-12-17T08:53:45.087Z,63.85
2018-12-17T08:56:14.505Z,61.03
2018-12-17T08:58:44.098Z,61.58
2018-12-17T09:01:13.609Z,70.07
2018-12-17T09:03:43.111Z,61.45
2018-12-17T09:06:12.493Z,73.53
2018-12-17T09:08:41.998Z,70.83
2018-12-17T09:11:11.421Z,60.58
2018-12-17T09:13:40.849Z,65.75
2018-12-17T09:16:10.415Z,58.55
2018-12-17T09:18:39.966Z,62.53
2018-12-17T09:24:06.180Z,61.00
2018-12-17T09:26:35.573Z,63.63
2018-12-17T09:29:05.414Z,62.75
2018-12-17T09:31:35.704Z,65.80
2018-12-17T09:34:05.325Z,62.03
2018-12-17T09:36:34.844Z,68.80
2018-12-17T09:39:15.185Z,66.42
2018-12-17T09:41:44.615Z,67.42
2018-12-17T09:44:14.208Z,78.00
2018-12-17T09:46:44.364Z,56.53
2018-12-17T09:49:13.761Z,65.87
2018-12-17T09:51:43.206Z,79.07
2018-12-17T09:54:12.663Z,68.95
2018-12-17T09:56:42.252Z,55.63
2018-12-17T09:59:11.706Z,66.02
2018-12-17T10:01:41.244Z,60.75
2018-12-17T10:04:10.680Z,59.03
2018-12-17T10:06:40.248Z,70.92
2018-12-17T10:09:09.906Z,67.67
2018-12-17T10:11:39.485Z,54.33
2018-12-17T10:14:08.919Z,63.63
2018-12-17T10:16:38.468Z,61.50
2018-12-17T10:19:07.955Z,56.60
2018-12-17T10:21:37.513Z,66.00
2018-12-17T10:24:07.051Z,60.13
2018-12-17T10:26:36.621Z,72.65
2018-12-17T10:29:06.137Z,62.10
2018-12-17T10:31:35.599Z,66.70
2018-12-17T10:34:05.227Z,73.10
2018-12-17T10:36:34.660Z,73.30
2018-12-17T10:39:05.933Z,75.10
2018-12-17T10:41:35.515Z,63.23
2018-12-17T10:44:05.189Z,71.90
2018-12-17T10:46:34.697Z,78.30
2018-12-17T10:49:04.253Z,60.63
2018-12-17T10:51:33.778Z,66.37
2018-12-17T10:54:03.227Z,78.73
2018-12-17T10:56:32.811Z,64.37
2018-12-17T10:59:02.240Z,70.60
2018-12-17T11:01:36.971Z,79.00
2018-12-17T11:04:13.746Z,69.75
2018-12-17T11:06:43.241Z,75.92
2018-12-17T11:09:12.770Z,88.05
2018-12-17T11:11:42.295Z,73.62
2018-12-17T11:14:11.825Z,78.02
2018-12-17T11:16:41.286Z,71.15
2018-12-17T11:19:10.799Z,64.97
2018-12-17T11:21:40.457Z,63.60
2018-12-17T11:24:10.042Z,66.62
2018-12-17T11:26:39.550Z,72.87
2018-12-17T11:29:09.088Z,78.67
2018-12-17T11:31:38.492Z,79.40
2018-12-17T11:34:07.915Z,72.35
2018-12-17T11:36:37.483Z,78.15
2018-12-17T11:39:10.278Z,67.10
2018-12-17T11:41:40.131Z,74.83
2018-12-17T11:44:09.500Z,75.25
2018-12-17T11:46:39.034Z,60.80
2018-12-17T11:49:08.485Z,85.45
2018-12-17T11:54:33.398Z,90.83
2018-12-17T11:57:51.227Z,70.55
2018-12-17T12:00:22.874Z,81.97
2018-12-17T12:02:58.935Z,87.37
2018-12-17T12:05:23.820Z,73.55
2018-12-17T12:07:53.474Z,96.85
2018-12-17T12:10:23.000Z,73.45
2018-12-17T12:12:52.455Z,82.15
2018-12-17T12:15:21.979Z,86.85
2018-12-17T12:17:51.524Z,81.72
2018-12-17T12:20:21.013Z,68.90
2018-12-17T12:22:50.416Z,76.07
2018-12-17T12:28:17.214Z,80.42
2018-12-17T12:30:46.688Z,89.95
2018-12-17T12:33:16.272Z,77.25
2018-12-17T12:48:44.038Z,70.15
2018-12-17T12:54:34.556Z,63.73
2018-12-17T12:57:09.461Z,61.43
2018-12-17T12:59:39.158Z,55.98
2018-12-17T13:02:09.728Z,69.37
2018-12-17T13:04:39.284Z,58.37
2018-12-17T13:07:08.890Z,55.48
2018-12-17T13:09:38.307Z,58.80
2018-12-17T13:12:11.097Z,58.40
2018-12-17T13:14:40.600Z,79.10
2018-12-17T13:20:41.458Z,47.55
2018-12-17T13:23:29.934Z,55.12
2018-12-17T13:25:59.552Z,61.50
2018-12-17T13:28:29.057Z,66.53
2018-12-17T13:30:58.632Z,57.13
2018-12-17T13:33:28.070Z,60.10
2018-12-17T13:35:58.438Z,62.35
2018-12-17T13:38:27.888Z,64.33
2018-12-17T13:40:57.503Z,61.58
2018-12-17T13:43:26.942Z,54.63
2018-12-17T13:45:56.374Z,61.65
2018-12-17T13:48:26.109Z,65.92
2018-12-17T13:54:04.967Z,56.18
2018-12-17T13:56:34.524Z,57.10
2018-12-17T13:59:04.037Z,61.63
2018-12-17T14:01:33.572Z,63.55
2018-12-17T14:04:03.024Z,57.55
2018-12-17T14:06:32.514Z,54.83
2018-12-17T14:09:02.030Z,60.25
2018-12-17T14:11:31.521Z,54.33
2018-12-17T14:17:09.848Z,53.67
2018-12-17T14:19:42.201Z,71.65
2018-12-17T14:22:11.696Z,61.13
2018-12-17T14:24:41.154Z,49.05
2018-12-17T14:27:11.847Z,60.10
2018-12-17T14:29:41.481Z,64.50
2018-12-17T14:32:11.127Z,74.50
2018-12-17T14:34:40.570Z,51.40
2018-12-17T14:37:10.092Z,61.85
2018-12-17T14:39:39.602Z,67.37
2018-12-17T14:42:09.286Z,70.50
2018-12-17T14:44:39.521Z,54.48
2018-12-17T14:47:21.948Z,54.90
2018-12-17T15:08:54.716Z,82.60
2018-12-17T15:11:36.369Z,69.15
2018-12-17T15:14:22.023Z,85.03
2018-12-17T15:16:55.341Z,67.60
2018-12-17T15:19:49.868Z,93.33
2018-12-17T15:22:25.223Z,91.60
2018-12-17T15:24:57.286Z,79.67
2018-12-17T15:27:49.040Z,91.20
2018-12-17T15:36:53.415Z,76.28
2018-12-17T15:42:40.607Z,75.85
2018-12-17T15:45:06.353Z,93.60
2018-12-17T15:47:35.898Z,88.78
2018-12-17T15:50:05.814Z,90.35
2018-12-17T15:52:35.406Z,88.50
2018-12-17T15:55:05.328Z,84.15
2018-12-17T15:57:34.825Z,92.42
2018-12-17T16:00:05.128Z,85.70
2018-12-17T16:02:34.675Z,88.05
2018-12-17T16:05:05.518Z,79.97
2018-12-17T16:07:35.372Z,82.85
2018-12-17T16:10:05.782Z,100.80
2018-12-17T16:15:38.318Z,79.07
2018-12-17T16:18:07.981Z,83.65
2018-12-17T16:20:37.452Z,85.32
2018-12-17T16:23:07.029Z,78.67
2018-12-17T16:25:36.513Z,88.52
2018-12-17T16:28:06.326Z,74.30
2018-12-17T16:30:35.830Z,69.50
2018-12-17T16:33:05.397Z,93.78
2018-12-17T16:35:35.011Z,68.92
2018-12-17T16:38:10.525Z,81.02
2018-12-17T16:40:40.311Z,91.15
2018-12-17T16:43:09.873Z,90.90
2018-12-17T16:45:39.568Z,84.40
2018-12-17T16:48:09.005Z,68.80
2018-12-17T16:50:38.888Z,101.72
2018-12-17T16:53:08.377Z,81.55
2018-12-17T16:55:44.814Z,93.90
2018-12-17T16:58:14.576Z,90.75
2018-12-17T17:01:02.049Z,65.03
2018-12-17T17:03:35.204Z,85.28
2018-12-17T17:06:16.966Z,60.45
2018-12-17T17:08:46.472Z,90.30
2018-12-17T17:11:20.010Z,73.60
2018-12-17T17:13:55.280Z,63.55
2018-12-17T17:16:24.837Z,67.15
2018-12-17T17:22:51.431Z,71.00
2018-12-17T17:25:27.345Z,63.42
2018-12-17T17:27:56.986Z,78.90
2018-12-17T17:30:32.793Z,75.32
2018-12-17T17:33:02.398Z,73.20
2018-12-17T17:35:31.991Z,58.87
2018-12-17T17:38:01.481Z,67.27
2018-12-17T17:40:49.278Z,55.60
2018-12-17T17:43:47.914Z,58.13
2018-12-17T17:46:31.007Z,57.62
2018-12-17T17:49:00.591Z,63.08
2018-12-17T17:51:30.183Z,45.67
2018-12-17T17:53:59.831Z,52.08
2018-12-17T17:56:29.334Z,54.80
2018-12-17T17:58:59.627Z,54.00
2018-12-17T18:01:29.155Z,55.65
2018-12-17T18:07:01.963Z,58.85
2018-12-17T18:09:31.457Z,58.42
2018-12-17T18:12:02.183Z,58.78
2018-12-17T18:14:31.750Z,54.83
2018-12-17T18:17:01.369Z,44.35
2018-12-17T18:19:30.922Z,49.98
2018-12-17T18:22:00.410Z,45.33
2018-12-17T18:27:34.088Z,42.08
2018-12-17T18:30:03.853Z,51.77
2018-12-17T18:32:33.510Z,52.88
2018-12-17T18:35:02.996Z,44.15
2018-12-17T18:37:49.288Z,42.58
2018-12-17T18:40:18.872Z,56.77
2018-12-17T18:42:48.385Z,48.15
2018-12-17T18:45:17.922Z,44.15
2018-12-17T18:47:47.517Z,51.65
2018-12-17T18:50:17.285Z,48.75
2018-12-17T18:52:52.630Z,46.85
2018-12-17T18:55:23.096Z,45.03
2018-12-17T18:57:52.650Z,43.02
2018-12-17T19:07:39.871Z,45.83
2018-12-17T19:26:20.529Z,49.27
2018-12-17T19:28:49.936Z,43.15
2018-12-17T19:31:19.748Z,39.98
2018-12-17T21:52:23.151Z,38.83
2018-12-17T21:54:52.754Z,36.15
2018-12-17T21:57:32.393Z,44.10
2018-12-17T22:00:26.208Z,38.70
2018-12-17T22:03:18.891Z,37.73
2018-12-17T22:05:48.390Z,42.47
2018-12-17T22:08:17.871Z,35.58
2018-12-17T22:14:19.271Z,36.70
2018-12-17T22:16:48.648Z,36.93
2018-12-17T22:19:18.131Z,42.35
2018-12-17T22:25:33.771Z,49.53
2018-12-17T22:28:09.527Z,31.40
2018-12-17T22:30:58.054Z,38.53
2018-12-17T22:33:45.887Z,39.30
2018-12-17T22:36:16.274Z,34.08
2018-12-17T22:38:45.773Z,40.30
2018-12-17T22:41:15.209Z,35.75
2018-12-17T22:43:44.598Z,42.35
2018-12-17T22:46:14.037Z,42.17
2018-12-17T22:48:43.413Z,40.67
2018-12-17T22:51:12.821Z,37.45
2018-12-17T22:53:42.294Z,28.38
2018-12-17T22:56:11.697Z,38.60
2018-12-17T22:58:42.688Z,57.45
2018-12-17T23:01:12.553Z,41.50
2018-12-17T23:03:41.938Z,37.80
2018-12-17T23:06:11.389Z,35.45
2018-12-17T23:08:52.833Z,40.87
2018-12-17T23:11:43.297Z,36.28
2018-12-17T23:14:29.751Z,35.28
2018-12-17T23:17:16.136Z,36.63
2018-12-17T23:19:47.058Z,37.30
2018-12-17T23:22:16.946Z,42.85
2018-12-17T23:24:46.398Z,35.45
2018-12-17T23:27:16.933Z,30.48
2018-12-17T23:29:46.379Z,40.63
2018-12-17T23:32:15.745Z,39.35
2018-12-17T23:34:45.136Z,47.45
2018-12-17T23:37:14.688Z,44.05
2018-12-17T23:39:44.118Z,38.00
2018-12-17T23:42:13.765Z,33.60
2018-12-17T23:44:43.199Z,34.88
2018-12-17T23:47:12.832Z,39.92
2018-12-17T23:49:42.489Z,43.52
2018-12-17T23:52:11.916Z,37.03
2018-12-17T23:54:41.487Z,36.50
2018-12-17T23:57:10.913Z,35.20
2018-12-17T23:59:40.344Z,34.70
